Time,TemperatureF,DewpointF,PressureIn,WindDirection,WindDirectionDegrees,WindSpeedMPH,WindSpeedGustMPH,Humidity,HourlyPrecipIn,Conditions,Clouds,dailyrainin,SoftwareType,DateUTC
2013-05-09 00:01:00,56.0,43.0,29.95,West,259,0.0,3.0,61,0.00,,,0.00,,2013-05-09 06:01:00,
2013-05-09 00:11:00,56.0,43.0,29.95,West,259,0.0,3.0,61,0.00,,,0.00,,2013-05-09 06:11:00,
2013-05-09 00:21:00,54.0,42.0,29.95,West,269,0.0,4.0,64,0.00,,,0.00,,2013-05-09 06:21:00,
2013-05-09 00:32:00,53.0,42.0,29.96,West,269,0.0,1.0,67,0.00,,,0.00,,2013-05-09 06:32:00,
2013-05-09 00:41:00,53.0,42.0,29.96,West,269,0.0,1.0,67,0.00,,,0.00,,2013-05-09 06:41:00,
2013-05-09 00:52:00,52.0,42.0,29.96,West,269,0.0,3.0,68,0.00,,,0.00,,2013-05-09 06:52:00,
2013-05-09 01:01:00,51.0,42.0,29.96,West,269,0.0,3.0,71,0.00,,,0.00,,2013-05-09 07:01:00,
2013-05-09 01:12:00,51.0,42.0,29.96,West,269,0.0,3.0,71,0.00,,,0.00,,2013-05-09 07:12:00,
2013-05-09 01:21:00,51.0,42.0,29.96,West,269,0.0,3.0,72,0.00,,,0.00,,2013-05-09 07:21:00,
2013-05-09 01:31:00,51.0,42.0,29.97,West,274,0.0,4.0,71,0.00,,,0.00,,2013-05-09 07:31:00,
2013-05-09 01:42:00,51.0,42.0,29.97,West,274,0.0,4.0,71,0.00,,,0.00,,2013-05-09 07:42:00,
2013-05-09 01:52:00,51.0,42.0,29.97,WNW,296,1.0,6.0,72,0.00,,,0.00,,2013-05-09 07:52:00,
2013-05-09 02:02:00,51.0,42.0,29.97,WNW,296,0.0,6.0,72,0.00,,,0.00,,2013-05-09 08:02:00,
2013-05-09 02:11:00,51.0,42.0,29.97,WNW,296,0.0,6.0,72,0.00,,,0.00,,2013-05-09 08:11:00,
2013-05-09 02:21:00,51.0,42.0,29.97,WNW,296,0.0,1.0,72,0.00,,,0.00,,2013-05-09 08:21:00,
2013-05-09 02:31:00,50.0,42.0,29.98,WNW,296,0.0,3.0,74,0.00,,,0.00,,2013-05-09 08:31:00,
2013-05-09 02:41:00,50.0,42.0,29.98,WNW,296,0.0,3.0,74,0.00,,,0.00,,2013-05-09 08:41:00,
2013-05-09 02:51:00,49.0,41.0,29.98,WNW,296,0.0,1.0,74,0.00,,,0.00,,2013-05-09 08:51:00,
2013-05-09 03:02:00,49.0,41.0,29.98,WNW,297,2.0,4.0,75,0.00,,,0.00,,2013-05-09 09:02:00,
2013-05-09 03:11:00,49.0,41.0,29.98,WNW,297,2.0,4.0,75,0.00,,,0.00,,2013-05-09 09:11:00,
2013-05-09 03:21:00,49.0,41.0,29.98,WNW,296,0.0,1.0,75,0.00,,,0.00,,2013-05-09 09:21:00,
2013-05-09 03:32:00,48.0,41.0,29.98,WNW,297,2.0,5.0,77,0.00,,,0.00,,2013-05-09 09:32:00,
2013-05-09 03:42:00,48.0,41.0,29.98,WNW,297,2.0,5.0,77,0.00,,,0.00,,2013-05-09 09:42:00,
2013-05-09 03:52:00,48.0,41.0,29.99,WNW,297,0.0,1.0,77,0.00,,,0.00,,2013-05-09 09:52:00,
2013-05-09 04:02:00,47.0,40.0,29.99,WNW,289,0.0,4.0,77,0.00,,,0.00,,2013-05-09 10:02:00,
2013-05-09 04:12:00,46.0,40.0,30.00,WNW,289,0.0,2.0,78,0.00,,,0.00,,2013-05-09 10:12:00,
2013-05-09 04:22:00,46.0,40.0,30.00,WNW,289,0.0,2.0,78,0.00,,,0.00,,2013-05-09 10:22:00,
2013-05-09 04:33:00,46.0,40.0,30.00,NW,313,2.0,5.0,79,0.00,,,0.00,,2013-05-09 10:33:00,
2013-05-09 04:42:00,46.0,40.0,30.00,NW,313,2.0,5.0,79,0.00,,,0.00,,2013-05-09 10:42:00,
2013-05-09 04:52:00,46.0,41.0,30.00,NW,305,0.0,4.0,81,0.00,,,0.00,,2013-05-09 10:52:00,
2013-05-09 05:02:00,45.0,40.0,30.01,NW,305,1.0,3.0,82,0.00,,,0.00,,2013-05-09 11:02:00,
2013-05-09 05:12:00,45.0,40.0,30.01,NW,305,1.0,3.0,82,0.00,,,0.00,,2013-05-09 11:12:00,
2013-05-09 05:22:00,46.0,41.0,30.01,NW,307,1.0,5.0,83,0.00,,,0.00,,2013-05-09 11:22:00,
2013-05-09 05:32:00,46.0,41.0,30.01,WNW,300,3.0,7.0,83,0.00,,,0.00,,2013-05-09 11:32:00,
2013-05-09 05:41:00,46.0,41.0,30.01,WNW,300,3.0,7.0,83,0.00,,,0.00,,2013-05-09 11:41:00,
2013-05-09 05:51:00,46.0,41.0,30.01,WNW,286,0.0,5.0,83,0.00,,,0.00,,2013-05-09 11:51:00,
2013-05-09 06:01:00,46.0,41.0,30.01,WNW,291,3.0,7.0,82,0.00,,,0.00,,2013-05-09 12:01:00,
2013-05-09 06:11:00,45.0,40.0,30.01,WNW,292,1.0,5.0,82,0.00,,,0.00,,2013-05-09 12:11:00,
2013-05-09 06:21:00,45.0,40.0,30.01,WNW,292,1.0,5.0,82,0.00,,,0.00,,2013-05-09 12:21:00,
2013-05-09 06:31:00,45.0,40.0,30.01,WNW,294,2.0,6.0,82,0.00,,,0.00,,2013-05-09 12:31:00,
2013-05-09 06:42:00,45.0,40.0,30.01,WNW,294,2.0,6.0,82,0.00,,,0.00,,2013-05-09 12:42:00,
2013-05-09 06:51:00,45.0,40.0,30.01,NW,304,3.0,5.0,82,0.00,,,0.00,,2013-05-09 12:51:00,
2013-05-09 07:01:00,45.0,40.0,30.02,WNW,300,1.0,4.0,82,0.00,,,0.00,,2013-05-09 13:01:00,
2013-05-09 07:11:00,45.0,40.0,30.02,WNW,300,1.0,4.0,82,0.00,,,0.00,,2013-05-09 13:11:00,
2013-05-09 07:21:00,45.0,40.0,30.03,WNW,286,1.0,5.0,83,0.00,,,0.00,,2013-05-09 13:21:00,
2013-05-09 07:31:00,47.0,42.0,30.03,West,259,0.0,3.0,83,0.00,,,0.00,,2013-05-09 13:31:00,
2013-05-09 07:42:00,47.0,42.0,30.03,West,259,0.0,3.0,83,0.00,,,0.00,,2013-05-09 13:42:00,
2013-05-09 07:52:00,49.0,43.0,30.03,ENE,62,0.0,4.0,80,0.00,,,0.00,,2013-05-09 13:52:00,
2013-05-09 08:01:00,51.0,44.0,30.04,NW,314,3.0,5.0,76,0.00,,,0.00,,2013-05-09 14:01:00,
2013-05-09 08:11:00,51.0,44.0,30.04,NW,314,3.0,5.0,76,0.00,,,0.00,,2013-05-09 14:11:00,
2013-05-09 08:21:00,51.0,43.0,30.04,WNW,302,0.0,4.0,74,0.00,,,0.00,,2013-05-09 14:21:00,
2013-05-09 08:32:00,52.0,44.0,30.04,WNW,302,0.0,3.0,73,0.00,,,0.00,,2013-05-09 14:32:00,
2013-05-09 08:41:00,52.0,44.0,30.04,WNW,302,0.0,3.0,73,0.00,,,0.00,,2013-05-09 14:41:00,
2013-05-09 08:52:00,52.0,43.0,30.04,WNW,296,1.0,4.0,71,0.00,,,0.00,,2013-05-09 14:52:00,
2013-05-09 09:01:00,53.0,44.0,30.04,NW,319,3.0,6.0,71,0.00,,,0.00,,2013-05-09 15:01:00,
2013-05-09 09:11:00,53.0,44.0,30.04,NW,319,3.0,6.0,71,0.00,,,0.00,,2013-05-09 15:11:00,
2013-05-09 09:21:00,55.0,45.0,30.05,NW,318,1.0,5.0,69,0.00,,,0.00,,2013-05-09 15:21:00,
2013-05-09 09:33:00,56.0,45.0,30.05,NNW,330,1.0,4.0,66,0.00,,,0.00,,2013-05-09 15:33:00,
2013-05-09 09:42:00,58.0,45.0,30.05,NNW,327,0.0,3.0,61,0.00,,,0.00,,2013-05-09 15:42:00,
2013-05-09 09:52:00,58.0,45.0,30.05,NNW,327,0.0,3.0,61,0.00,,,0.00,,2013-05-09 15:52:00,
2013-05-09 10:03:00,60.0,44.0,30.04,NW,308,0.0,3.0,56,0.00,,,0.00,,2013-05-09 16:03:00,
2013-05-09 10:12:00,60.0,44.0,30.04,NW,308,0.0,3.0,56,0.00,,,0.00,,2013-05-09 16:12:00,
2013-05-09 10:22:00,61.0,43.0,30.04,NW,309,0.0,2.0,52,0.00,,,0.00,,2013-05-09 16:22:00,
2013-05-09 10:32:00,62.0,44.0,30.04,NNW,348,0.0,4.0,52,0.00,,,0.00,,2013-05-09 16:32:00,
2013-05-09 10:41:00,62.0,44.0,30.04,NNW,348,0.0,4.0,52,0.00,,,0.00,,2013-05-09 16:41:00,
2013-05-09 10:52:00,63.0,44.0,30.04,NE,56,1.0,5.0,49,0.00,,,0.00,,2013-05-09 16:52:00,
2013-05-09 11:02:00,65.0,45.0,30.03,ENE,71,0.0,5.0,48,0.00,,,0.00,,2013-05-09 17:02:00,
2013-05-09 11:12:00,65.0,45.0,30.03,ENE,71,0.0,5.0,48,0.00,,,0.00,,2013-05-09 17:12:00,
2013-05-09 11:21:00,66.0,45.0,30.03,NE,55,0.0,4.0,46,0.00,,,0.00,,2013-05-09 17:21:00,
2013-05-09 11:32:00,67.0,46.0,30.03,ENE,64,0.0,6.0,46,0.00,,,0.00,,2013-05-09 17:32:00,
2013-05-09 11:41:00,67.0,46.0,30.03,ENE,64,0.0,6.0,46,0.00,,,0.00,,2013-05-09 17:41:00,
2013-05-09 11:55:00,68.0,45.0,30.03,ENE,67,2.0,5.0,44,0.00,,,0.00,,2013-05-09 17:55:00,
2013-05-09 12:01:00,69.0,46.0,30.03,ESE,110,1.0,5.0,43,0.00,,,0.00,,2013-05-09 18:01:00,
2013-05-09 12:12:00,69.0,46.0,30.03,ESE,110,1.0,5.0,43,0.00,,,0.00,,2013-05-09 18:12:00,
2013-05-09 12:21:00,70.0,44.0,30.02,NNE,17,2.0,6.0,39,0.00,,,0.00,,2013-05-09 18:21:00,
2013-05-09 12:31:00,70.0,45.0,30.02,SSE,165,1.0,4.0,41,0.00,,,0.00,,2013-05-09 18:31:00,
2013-05-09 12:41:00,70.0,45.0,30.02,SSE,165,1.0,4.0,41,0.00,,,0.00,,2013-05-09 18:41:00,
2013-05-09 12:52:00,70.0,45.0,30.02,NE,47,1.0,8.0,40,0.00,,,0.00,,2013-05-09 18:52:00,
2013-05-09 13:01:00,71.0,45.0,30.01,WNW,303,0.0,5.0,40,0.00,,,0.00,,2013-05-09 19:01:00,
2013-05-09 13:11:00,71.0,45.0,30.01,WNW,303,0.0,5.0,40,0.00,,,0.00,,2013-05-09 19:11:00,
2013-05-09 13:21:00,72.0,45.0,30.01,SSE,163,1.0,5.0,38,0.00,,,0.00,,2013-05-09 19:21:00,
2013-05-09 13:31:00,73.0,46.0,30.01,SE,142,0.0,6.0,38,0.00,,,0.00,,2013-05-09 19:31:00,
2013-05-09 13:41:00,73.0,46.0,30.01,SE,142,0.0,6.0,38,0.00,,,0.00,,2013-05-09 19:41:00,
2013-05-09 13:52:00,73.0,46.0,30.00,South,190,3.0,7.0,38,0.00,,,0.00,,2013-05-09 19:52:00,
2013-05-09 14:01:00,73.0,46.0,29.99,SSE,164,2.0,6.0,38,0.00,,,0.00,,2013-05-09 20:01:00,
2013-05-09 14:11:00,73.0,46.0,29.99,SSE,164,2.0,6.0,38,0.00,,,0.00,,2013-05-09 20:11:00,
2013-05-09 14:21:00,74.0,45.0,29.99,South,181,3.0,10.0,36,0.00,,,0.00,,2013-05-09 20:21:00,
2013-05-09 14:32:00,74.0,44.0,29.99,South,176,5.0,7.0,34,0.00,,,0.00,,2013-05-09 20:32:00,
2013-05-09 14:42:00,75.0,48.0,29.98,SE,127,0.0,4.0,39,0.00,,,0.00,,2013-05-09 20:42:00,
2013-05-09 14:52:00,75.0,48.0,29.98,SE,127,0.0,4.0,39,0.00,,,0.00,,2013-05-09 20:52:00,
2013-05-09 15:01:00,75.0,42.0,29.98,East,86,0.0,7.0,31,0.00,,,0.00,,2013-05-09 21:01:00,
2013-05-09 15:11:00,75.0,42.0,29.98,East,86,0.0,7.0,31,0.00,,,0.00,,2013-05-09 21:11:00,
2013-05-09 15:22:00,76.0,43.0,29.98,SE,132,0.0,8.0,31,0.00,,,0.00,,2013-05-09 21:22:00,
2013-05-09 15:32:00,76.0,43.0,29.97,SSE,155,2.0,8.0,31,0.00,,,0.00,,2013-05-09 21:32:00,
2013-05-09 15:42:00,76.0,41.0,29.96,WNW,286,2.0,5.0,28,0.00,,,0.00,,2013-05-09 21:42:00,
2013-05-09 15:52:00,76.0,41.0,29.96,WNW,286,2.0,5.0,28,0.00,,,0.00,,2013-05-09 21:52:00,
2013-05-09 16:02:00,77.0,42.0,29.96,WSW,257,0.0,7.0,29,0.00,,,0.00,,2013-05-09 22:02:00,
2013-05-09 16:12:00,79.0,43.0,29.95,WNW,282,0.0,5.0,28,0.00,,,0.00,,2013-05-09 22:12:00,
2013-05-09 16:22:00,79.0,43.0,29.95,WNW,282,0.0,5.0,28,0.00,,,0.00,,2013-05-09 22:22:00,
2013-05-09 16:32:00,79.0,41.0,29.95,ENE,76,1.0,5.0,26,0.00,,,0.00,,2013-05-09 22:32:00,
2013-05-09 16:42:00,79.0,43.0,29.94,ESE,107,0.0,4.0,28,0.00,,,0.00,,2013-05-09 22:42:00,
2013-05-09 16:52:00,79.0,43.0,29.94,ESE,107,0.0,4.0,28,0.00,,,0.00,,2013-05-09 22:52:00,
2013-05-09 17:02:00,78.0,43.0,29.93,SSE,165,5.0,12.0,29,0.00,,,0.00,,2013-05-09 23:02:00,
2013-05-09 17:11:00,78.0,43.0,29.93,SSE,165,5.0,12.0,29,0.00,,,0.00,,2013-05-09 23:11:00,
2013-05-09 17:21:00,78.0,43.0,29.93,ESE,107,2.0,8.0,29,0.00,,,0.00,,2013-05-09 23:21:00,
2013-05-09 17:32:00,77.0,39.0,29.93,SE,138,4.0,8.0,26,0.00,,,0.00,,2013-05-09 23:32:00,
2013-05-09 17:42:00,78.0,44.0,29.93,SSE,154,5.0,9.0,30,0.00,,,0.00,,2013-05-09 23:42:00,
2013-05-09 17:52:00,78.0,44.0,29.93,SSE,154,5.0,9.0,30,0.00,,,0.00,,2013-05-09 23:52:00,
2013-05-09 18:01:00,77.0,41.0,29.93,SE,136,3.0,9.0,28,0.00,,,0.00,,2013-05-10 00:01:00,
2013-05-09 18:11:00,78.0,41.0,29.93,SE,130,2.0,6.0,27,0.00,,,0.00,,2013-05-10 00:11:00,
2013-05-09 18:21:00,78.0,41.0,29.93,SE,130,2.0,6.0,27,0.00,,,0.00,,2013-05-10 00:21:00,
2013-05-09 18:32:00,78.0,43.0,29.92,SE,137,3.0,7.0,29,0.00,,,0.00,,2013-05-10 00:32:00,
2013-05-09 18:42:00,78.0,42.0,29.93,ESE,123,0.0,6.0,28,0.00,,,0.00,,2013-05-10 00:42:00,
2013-05-09 18:51:00,78.0,42.0,29.93,ESE,123,0.0,6.0,28,0.00,,,0.00,,2013-05-10 00:51:00,
2013-05-09 19:01:00,78.0,42.0,29.93,ESE,123,0.0,6.0,28,0.00,,,0.00,,2013-05-10 01:01:00,
2013-05-09 19:11:00,78.0,42.0,29.93,ESE,123,0.0,6.0,28,0.00,,,0.00,,2013-05-10 01:11:00,
2013-05-09 19:21:00,78.0,40.0,29.92,East,80,0.0,7.0,26,0.00,,,0.00,,2013-05-10 01:21:00,
2013-05-09 19:31:00,79.0,26.0,29.92,NNW,333,3.0,12.0,14,0.00,,,0.00,,2013-05-10 01:31:00,
2013-05-09 20:01:00,79.0,24.0,29.92,NNW,336,3.0,7.0,13,0.00,,,0.00,,2013-05-10 02:01:00,
2013-05-09 20:11:00,79.0,24.0,29.93,NNE,21,0.0,5.0,13,0.00,,,0.00,,2013-05-10 02:11:00,
2013-05-09 20:31:00,78.0,27.0,29.93,North,355,0.0,1.0,15,0.00,,,0.00,,2013-05-10 02:31:00,
2013-05-09 20:42:00,77.0,30.0,29.93,North,355,0.0,0.0,18,0.00,,,0.00,,2013-05-10 02:42:00,
2013-05-09 20:52:00,77.0,30.0,29.93,North,355,0.0,0.0,18,0.00,,,0.00,,2013-05-10 02:52:00,
2013-05-09 21:01:00,76.0,33.0,29.93,North,355,0.0,1.0,21,0.00,,,0.00,,2013-05-10 03:01:00,
2013-05-09 21:11:00,76.0,33.0,29.93,North,355,0.0,1.0,21,0.00,,,0.00,,2013-05-10 03:11:00,
2013-05-09 21:21:00,73.0,34.0,29.93,North,355,0.0,1.0,24,0.00,,,0.00,,2013-05-10 03:21:00,
2013-05-09 21:32:00,70.0,36.0,29.94,SSW,209,0.0,4.0,29,0.00,,,0.00,,2013-05-10 03:32:00,
2013-05-09 21:42:00,70.0,36.0,29.94,SSW,209,0.0,4.0,29,0.00,,,0.00,,2013-05-10 03:42:00,
2013-05-09 21:53:00,68.0,36.0,29.94,SW,215,0.0,4.0,31,0.00,,,0.00,,2013-05-10 03:53:00,
2013-05-09 22:02:00,66.0,38.0,29.94,SW,215,0.0,0.0,36,0.00,,,0.00,,2013-05-10 04:02:00,
2013-05-09 22:12:00,66.0,38.0,29.94,SW,215,0.0,0.0,36,0.00,,,0.00,,2013-05-10 04:12:00,
2013-05-09 22:22:00,63.0,36.0,29.95,SW,221,1.0,5.0,36,0.00,,,0.00,,2013-05-10 04:22:00,
2013-05-09 22:33:00,62.0,36.0,29.95,SW,215,0.0,4.0,38,0.00,,,0.00,,2013-05-10 04:33:00,
2013-05-09 22:42:00,61.0,39.0,29.95,South,190,1.0,6.0,44,0.00,,,0.00,,2013-05-10 04:42:00,
2013-05-09 22:52:00,61.0,39.0,29.95,South,190,1.0,6.0,44,0.00,,,0.00,,2013-05-10 04:52:00,
2013-05-09 23:02:00,61.0,38.0,29.96,SE,128,2.0,6.0,43,0.00,,,0.00,,2013-05-10 05:02:00,
2013-05-09 23:12:00,61.0,39.0,29.96,SW,235,5.0,9.0,44,0.00,,,0.00,,2013-05-10 05:12:00,
2013-05-09 23:21:00,61.0,39.0,29.96,SW,235,5.0,9.0,44,0.00,,,0.00,,2013-05-10 05:21:00,
2013-05-09 23:32:00,60.0,38.0,29.97,SSW,202,3.0,7.0,44,0.00,,,0.00,,2013-05-10 05:32:00,
2013-05-09 23:42:00,60.0,39.0,29.97,SSW,205,1.0,3.0,45,0.00,,,0.00,,2013-05-10 05:42:00,
2013-05-09 23:52:00,60.0,39.0,29.97,SSW,205,1.0,3.0,45,0.00,,,0.00,,2013-05-10 05:52:00,